sensor_id;sensor_type;location;lat;lon;timestamp;pressure;altitude;pressure_sealevel;temperature;humidity
41234;BME280;26968;42.686;23.352;2022-12-31T00:01:46;96155.97;;;4.82;74.18
41234;BME280;26968;42.686;23.352;2022-12-31T00:04:11;96234.22;;;5.18;75.00
41234;BME280;26968;42.686;23.352;2022-12-31T00:06:36;96243.19;;;5.04;75.49
41234;BME280;26968;42.686;23.352;2022-12-31T00:09:05;96240.03;;;5.20;75.53
41234;BME280;26968;42.686;23.352;2022-12-31T00:11:31;96257.66;;;5.44;74.78
41234;BME280;26968;42.686;23.352;2022-12-31T00:13:57;96213.69;;;5.27;75.18
41234;BME280;26968;42.686;23.352;2022-12-31T00:18:51;96253.69;;;5.60;75.02
41234;BME280;26968;42.686;23.352;2022-12-31T00:21:18;96183.19;;;5.19;74.84
41234;BME280;26968;42.686;23.352;2022-12-31T00:23:44;96261.09;;;5.70;74.69
41234;BME280;26968;42.686;23.352;2022-12-31T00:26:18;96061.06;;;4.47;74.60
41234;BME280;26968;42.686;23.352;2022-12-31T00:28:46;96259.84;;;5.72;74.91
41234;BME280;26968;42.686;23.352;2022-12-31T00:31:20;96097.47;;;4.69;74.87
41234;BME280;26968;42.686;23.352;2022-12-31T00:33:45;96201.84;;;5.18;75.56
41234;BME280;26968;42.686;23.352;2022-12-31T00:36:18;96279.06;;;5.73;74.84
41234;BME280;26968;42.686;23.352;2022-12-31T00:38:46;96280.88;;;5.79;75.24
41234;BME280;26968;42.686;23.352;2022-12-31T00:41:13;96202.94;;;5.28;75.11
41234;BME280;26968;42.686;23.352;2022-12-31T00:43:39;96286.06;;;5.86;74.77
41234;BME280;26968;42.686;23.352;2022-12-31T00:46:06;96287.09;;;5.85;74.71
41234;BME280;26968;42.686;23.352;2022-12-31T00:48:32;96241.34;;;5.61;75.27
41234;BME280;26968;42.686;23.352;2022-12-31T00:50:59;96288.22;;;5.95;74.84
41234;BME280;26968;42.686;23.352;2022-12-31T00:53:25;96228.25;;;5.54;74.91
41234;BME280;26968;42.686;23.352;2022-12-31T00:55:52;96268.72;;;5.78;74.70
41234;BME280;26968;42.686;23.352;2022-12-31T00:58:23;96255.66;;;5.65;74.42
41234;BME280;26968;42.686;23.352;2022-12-31T01:00:48;96279.94;;;5.67;73.83
41234;BME280;26968;42.686;23.352;2022-12-31T01:03:14;96261.16;;;5.63;73.60
41234;BME280;26968;42.686;23.352;2022-12-31T01:05:39;96288.59;;;5.74;73.37
41234;BME280;26968;42.686;23.352;2022-12-31T01:08:06;96165.22;;;4.91;73.40
41234;BME280;26968;42.686;23.352;2022-12-31T01:10:31;96239.16;;;5.33;73.56
41234;BME280;26968;42.686;23.352;2022-12-31T01:13:15;96262.91;;;5.44;73.12
41234;BME280;26968;42.686;23.352;2022-12-31T01:15:40;96234.47;;;5.35;72.83
41234;BME280;26968;42.686;23.352;2022-12-31T01:18:07;96309.44;;;5.75;72.88
41234;BME280;26968;42.686;23.352;2022-12-31T01:20:41;96308.63;;;5.75;72.33
41234;BME280;26968;42.686;23.352;2022-12-31T01:23:07;96312.47;;;5.72;73.02
41234;BME280;26968;42.686;23.352;2022-12-31T01:25:37;96242.00;;;5.31;72.14
41234;BME280;26968;42.686;23.352;2022-12-31T01:28:05;96315.56;;;5.69;72.74
41234;BME280;26968;42.686;23.352;2022-12-31T01:30:31;96291.38;;;5.54;72.38
41234;BME280;26968;42.686;23.352;2022-12-31T01:32:56;96302.47;;;5.63;72.69
41234;BME280;26968;42.686;23.352;2022-12-31T01:35:22;96190.09;;;4.89;72.02
41234;BME280;26968;42.686;23.352;2022-12-31T01:37:48;96261.81;;;5.34;72.20
41234;BME280;26968;42.686;23.352;2022-12-31T01:40:13;96297.59;;;5.35;72.72
41234;BME280;26968;42.686;23.352;2022-12-31T01:42:38;96212.53;;;4.91;72.40
41234;BME280;26968;42.686;23.352;2022-12-31T01:45:10;95988.59;;;3.45;72.62
41234;BME280;26968;42.686;23.352;2022-12-31T01:47:44;96240.22;;;4.94;72.34
41234;BME280;26968;42.686;23.352;2022-12-31T01:50:16;96294.38;;;5.33;72.96
41234;BME280;26968;42.686;23.352;2022-12-31T01:52:49;96320.84;;;5.38;72.76
41234;BME280;26968;42.686;23.352;2022-12-31T01:55:33;96325.09;;;5.39;72.65
41234;BME280;26968;42.686;23.352;2022-12-31T01:58:07;96327.34;;;5.35;72.82
41234;BME280;26968;42.686;23.352;2022-12-31T02:00:34;96271.34;;;4.97;72.43
41234;BME280;26968;42.686;23.352;2022-12-31T02:03:00;96301.97;;;5.16;72.73
41234;BME280;26968;42.686;23.352;2022-12-31T02:05:30;96301.16;;;5.16;73.05
41234;BME280;26968;42.686;23.352;2022-12-31T02:07:57;96320.28;;;5.29;72.97
41234;BME280;26968;42.686;23.352;2022-12-31T02:10:23;96286.88;;;5.05;72.95
41234;BME280;26968;42.686;23.352;2022-12-31T02:12:49;96283.06;;;5.01;73.08
41234;BME280;26968;42.686;23.352;2022-12-31T02:15:16;96255.69;;;4.77;72.59
41234;BME280;26968;42.686;23.352;2022-12-31T02:20:52;96335.72;;;5.26;72.81
41234;BME280;26968;42.686;23.352;2022-12-31T02:32:00;96276.16;;;4.69;73.33
41234;BME280;26968;42.686;23.352;2022-12-31T02:34:31;96344.09;;;5.10;73.05
41234;BME280;26968;42.686;23.352;2022-12-31T02:36:59;96342.47;;;5.09;73.32
41234;BME280;26968;42.686;23.352;2022-12-31T02:39:27;96296.72;;;4.78;73.46
41234;BME280;26968;42.686;23.352;2022-12-31T02:41:53;96325.38;;;4.93;73.21
41234;BME280;26968;42.686;23.352;2022-12-31T02:44:25;96360.06;;;5.08;72.97
41234;BME280;26968;42.686;23.352;2022-12-31T02:55:24;96341.50;;;5.03;73.72
41234;BME280;26968;42.686;23.352;2022-12-31T03:00:42;96345.72;;;5.04;73.71
41234;BME280;26968;42.686;23.352;2022-12-31T03:03:28;96308.91;;;4.73;74.23
41234;BME280;26968;42.686;23.352;2022-12-31T03:05:54;96352.78;;;5.03;73.66
41234;BME280;26968;42.686;23.352;2022-12-31T03:08:22;96326.63;;;4.84;73.68
41234;BME280;26968;42.686;23.352;2022-12-31T03:10:48;96347.78;;;5.02;73.65
41234;BME280;26968;42.686;23.352;2022-12-31T03:13:14;96309.91;;;4.72;74.00
41234;BME280;26968;42.686;23.352;2022-12-31T03:15:39;96264.75;;;4.37;73.99
41234;BME280;26968;42.686;23.352;2022-12-31T03:18:06;96335.06;;;4.92;73.81
41234;BME280;26968;42.686;23.352;2022-12-31T03:23:29;96273.63;;;4.49;74.00
41234;BME280;26968;42.686;23.352;2022-12-31T03:25:55;96299.63;;;4.63;73.70
41234;BME280;26968;42.686;23.352;2022-12-31T03:28:23;96318.59;;;4.72;73.60
41234;BME280;26968;42.686;23.352;2022-12-31T03:30:51;96331.31;;;4.75;74.11
41234;BME280;26968;42.686;23.352;2022-12-31T03:33:17;96298.63;;;4.58;73.99
41234;BME280;26968;42.686;23.352;2022-12-31T03:35:45;96304.91;;;4.57;74.40
41234;BME280;26968;42.686;23.352;2022-12-31T03:38:12;96343.03;;;4.79;74.12
41234;BME280;26968;42.686;23.352;2022-12-31T03:40:40;96246.03;;;4.20;73.92
41234;BME280;26968;42.686;23.352;2022-12-31T03:43:06;96291.66;;;4.32;74.39
41234;BME280;26968;42.686;23.352;2022-12-31T03:45:32;96301.91;;;4.47;74.01
41234;BME280;26968;42.686;23.352;2022-12-31T03:47:59;96344.47;;;4.69;74.55
41234;BME280;26968;42.686;23.352;2022-12-31T03:50:25;96245.50;;;3.98;74.03
41234;BME280;26968;42.686;23.352;2022-12-31T03:52:51;96277.38;;;4.15;74.04
41234;BME280;26968;42.686;23.352;2022-12-31T03:55:16;96220.72;;;3.87;74.15
41234;BME280;26968;42.686;23.352;2022-12-31T03:57:42;96267.50;;;4.10;73.98
41234;BME280;26968;42.686;23.352;2022-12-31T04:00:11;96274.56;;;4.10;74.29
41234;BME280;26968;42.686;23.352;2022-12-31T04:02:37;96333.47;;;4.40;74.26
41234;BME280;26968;42.686;23.352;2022-12-31T04:05:03;96358.66;;;4.61;74.40
41234;BME280;26968;42.686;23.352;2022-12-31T04:07:28;96349.94;;;4.60;74.20
41234;BME280;26968;42.686;23.352;2022-12-31T04:09:54;96328.63;;;4.31;74.94
41234;BME280;26968;42.686;23.352;2022-12-31T04:12:19;96294.56;;;4.11;74.83
41234;BME280;26968;42.686;23.352;2022-12-31T04:14:45;96363.94;;;4.54;74.43
41234;BME280;26968;42.686;23.352;2022-12-31T04:17:10;96361.72;;;4.45;74.79
41234;BME280;26968;42.686;23.352;2022-12-31T04:19:35;96316.94;;;4.13;74.83
41234;BME280;26968;42.686;23.352;2022-12-31T04:22:02;96299.22;;;4.02;74.84
41234;BME280;26968;42.686;23.352;2022-12-31T04:24:27;96337.72;;;4.21;74.65
41234;BME280;26968;42.686;23.352;2022-12-31T04:26:53;96303.03;;;4.06;74.40
41234;BME280;26968;42.686;23.352;2022-12-31T04:29:18;96243.75;;;3.72;74.71
41234;BME280;26968;42.686;23.352;2022-12-31T04:31:44;96363.94;;;4.48;74.76
41234;BME280;26968;42.686;23.352;2022-12-31T04:34:09;96313.16;;;4.03;74.49
41234;BME280;26968;42.686;23.352;2022-12-31T04:36:34;96319.41;;;4.02;74.29
41234;BME280;26968;42.686;23.352;2022-12-31T04:39:00;96327.28;;;4.02;74.31
41234;BME280;26968;42.686;23.352;2022-12-31T04:41:25;96229.03;;;3.38;74.28
41234;BME280;26968;42.686;23.352;2022-12-31T04:43:53;96390.63;;;4.38;74.09
41234;BME280;26968;42.686;23.352;2022-12-31T04:46:22;96389.63;;;4.33;74.26
41234;BME280;26968;42.686;23.352;2022-12-31T04:48:48;96369.28;;;4.02;75.01
41234;BME280;26968;42.686;23.352;2022-12-31T04:51:14;96338.19;;;3.85;74.61
41234;BME280;26968;42.686;23.352;2022-12-31T04:53:39;96350.50;;;3.92;74.58
41234;BME280;26968;42.686;23.352;2022-12-31T04:56:06;96398.34;;;4.26;74.63
41234;BME280;26968;42.686;23.352;2022-12-31T04:58:33;96390.03;;;4.23;74.70
41234;BME280;26968;42.686;23.352;2022-12-31T05:00:58;96375.94;;;4.04;74.22
41234;BME280;26968;42.686;23.352;2022-12-31T05:03:24;96404.81;;;4.17;74.29
41234;BME280;26968;42.686;23.352;2022-12-31T05:05:51;96404.41;;;4.07;74.41
41234;BME280;26968;42.686;23.352;2022-12-31T05:08:17;96391.28;;;4.01;74.55
41234;BME280;26968;42.686;23.352;2022-12-31T05:10:48;96353.53;;;3.69;74.36
41234;BME280;26968;42.686;23.352;2022-12-31T05:13:14;96343.66;;;3.58;74.39
41234;BME280;26968;42.686;23.352;2022-12-31T05:15:40;96360.59;;;3.55;74.36
41234;BME280;26968;42.686;23.352;2022-12-31T05:18:06;96283.47;;;2.97;74.84
41234;BME280;26968;42.686;23.352;2022-12-31T05:20:32;96360.16;;;3.38;74.79
41234;BME280;26968;42.686;23.352;2022-12-31T05:22:57;96338.16;;;3.26;75.21
41234;BME280;26968;42.686;23.352;2022-12-31T05:25:23;96426.41;;;3.86;75.18
41234;BME280;26968;42.686;23.352;2022-12-31T05:27:48;96433.66;;;3.84;75.06
41234;BME280;26968;42.686;23.352;2022-12-31T05:30:14;96423.34;;;3.70;75.08
41234;BME280;26968;42.686;23.352;2022-12-31T05:32:39;96440.13;;;3.75;75.15
41234;BME280;26968;42.686;23.352;2022-12-31T05:35:05;96397.31;;;3.48;74.94
41234;BME280;26968;42.686;23.352;2022-12-31T05:37:32;96443.34;;;3.77;74.94
41234;BME280;26968;42.686;23.352;2022-12-31T05:39:58;96408.59;;;3.49;75.21
41234;BME280;26968;42.686;23.352;2022-12-31T05:42:24;96360.53;;;3.16;75.61
41234;BME280;26968;42.686;23.352;2022-12-31T05:44:49;96425.78;;;3.58;75.50
41234;BME280;26968;42.686;23.352;2022-12-31T05:47:15;96323.16;;;2.87;75.54
41234;BME280;26968;42.686;23.352;2022-12-31T05:49:40;96367.81;;;3.20;75.64
41234;BME280;26968;42.686;23.352;2022-12-31T05:52:06;96406.97;;;3.41;75.60
41234;BME280;26968;42.686;23.352;2022-12-31T05:54:32;96318.72;;;2.81;75.68
41234;BME280;26968;42.686;23.352;2022-12-31T05:56:58;96353.81;;;3.00;75.30
41234;BME280;26968;42.686;23.352;2022-12-31T05:59:23;96334.03;;;2.84;75.58
41234;BME280;26968;42.686;23.352;2022-12-31T06:01:49;96454.84;;;3.63;75.60
41234;BME280;26968;42.686;23.352;2022-12-31T06:04:15;96428.78;;;3.48;75.67
41234;BME280;26968;42.686;23.352;2022-12-31T06:06:40;96322.72;;;2.84;75.85
41234;BME280;26968;42.686;23.352;2022-12-31T06:09:06;96404.53;;;3.33;75.70
41234;BME280;26968;42.686;23.352;2022-12-31T06:11:32;96364.56;;;3.12;75.49
41234;BME280;26968;42.686;23.352;2022-12-31T06:13:57;96389.19;;;3.30;75.96
41234;BME280;26968;42.686;23.352;2022-12-31T06:16:23;96424.94;;;3.51;75.92
41234;BME280;26968;42.686;23.352;2022-12-31T06:18:49;96424.34;;;3.56;75.67
41234;BME280;26968;42.686;23.352;2022-12-31T06:21:16;96420.31;;;3.53;75.47
41234;BME280;26968;42.686;23.352;2022-12-31T06:23:41;96379.91;;;3.28;75.44
41234;BME280;26968;42.686;23.352;2022-12-31T06:26:07;96286.41;;;2.67;75.51
41234;BME280;26968;42.686;23.352;2022-12-31T06:28:33;96470.78;;;3.81;75.54
41234;BME280;26968;42.686;23.352;2022-12-31T06:31:03;96470.22;;;3.79;75.35
41234;BME280;26968;42.686;23.352;2022-12-31T06:33:30;96456.47;;;3.71;75.38
41234;BME280;26968;42.686;23.352;2022-12-31T06:35:57;96457.47;;;3.70;75.65
41234;BME280;26968;42.686;23.352;2022-12-31T06:38:26;96483.34;;;3.86;75.41
41234;BME280;26968;42.686;23.352;2022-12-31T06:40:53;96458.28;;;3.70;75.38
41234;BME280;26968;42.686;23.352;2022-12-31T06:43:19;96407.78;;;3.35;75.14
41234;BME280;26968;42.686;23.352;2022-12-31T06:45:44;96494.41;;;3.75;76.80
41234;BME280;26968;42.686;23.352;2022-12-31T06:48:10;96470.78;;;3.75;76.47
41234;BME280;26968;42.686;23.352;2022-12-31T06:50:35;96483.13;;;3.81;76.12
41234;BME280;26968;42.686;23.352;2022-12-31T06:53:01;96442.53;;;3.64;76.03
41234;BME280;26968;42.686;23.352;2022-12-31T06:55:26;96511.59;;;3.91;75.80
41234;BME280;26968;42.686;23.352;2022-12-31T06:57:52;96428.34;;;3.45;75.85
41234;BME280;26968;42.686;23.352;2022-12-31T07:00:18;96501.69;;;3.79;75.89
41234;BME280;26968;42.686;23.352;2022-12-31T07:03:14;96507.16;;;3.98;75.90
41234;BME280;26968;42.686;23.352;2022-12-31T07:08:36;96488.78;;;3.98;75.84
41234;BME280;26968;42.686;23.352;2022-12-31T07:11:21;96516.47;;;4.13;76.06
41234;BME280;26968;42.686;23.352;2022-12-31T07:17:19;96509.03;;;4.10;75.67
41234;BME280;26968;42.686;23.352;2022-12-31T07:22:35;96447.78;;;3.77;76.20
41234;BME280;26968;42.686;23.352;2022-12-31T07:25:00;96452.47;;;3.88;75.90
41234;BME280;26968;42.686;23.352;2022-12-31T07:35:42;96537.50;;;4.59;75.77
41234;BME280;26968;42.686;23.352;2022-12-31T07:38:21;96534.06;;;4.65;75.55
41234;BME280;26968;42.686;23.352;2022-12-31T07:41:06;96538.72;;;4.70;75.41
41234;BME280;26968;42.686;23.352;2022-12-31T07:49:10;96496.50;;;4.52;75.36
41234;BME280;26968;42.686;23.352;2022-12-31T07:51:36;96465.38;;;4.29;75.45
41234;BME280;26968;42.686;23.352;2022-12-31T07:54:03;96559.72;;;4.83;75.87
41234;BME280;26968;42.686;23.352;2022-12-31T07:56:29;96555.91;;;4.92;75.26
41234;BME280;26968;42.686;23.352;2022-12-31T08:04:35;96553.84;;;5.08;75.14
41234;BME280;26968;42.686;23.352;2022-12-31T08:07:50;96524.53;;;4.97;74.96
41234;BME280;26968;42.686;23.352;2022-12-31T08:10:42;96515.25;;;4.88;74.43
41234;BME280;26968;42.686;23.352;2022-12-31T08:13:12;96530.41;;;4.93;75.26
41234;BME280;26968;42.686;23.352;2022-12-31T08:15:38;96451.84;;;4.45;75.69
41234;BME280;26968;42.686;23.352;2022-12-31T08:18:04;96514.03;;;4.91;75.36
41234;BME280;26968;42.686;23.352;2022-12-31T08:20:32;96468.38;;;4.65;75.00
41234;BME280;26968;42.686;23.352;2022-12-31T08:23:32;96527.00;;;4.86;75.52
41234;BME280;26968;42.686;23.352;2022-12-31T08:26:05;96549.56;;;5.26;75.17
41234;BME280;26968;42.686;23.352;2022-12-31T08:28:44;96548.75;;;5.26;74.89
41234;BME280;26968;42.686;23.352;2022-12-31T08:33:54;96444.16;;;4.63;75.19
41234;BME280;26968;42.686;23.352;2022-12-31T08:41:44;96561.22;;;5.43;74.93
41234;BME280;26968;42.686;23.352;2022-12-31T08:44:32;96559.22;;;5.46;74.76
41234;BME280;26968;42.686;23.352;2022-12-31T08:47:16;96553.72;;;5.54;74.78
41234;BME280;26968;42.686;23.352;2022-12-31T08:49:47;96489.47;;;5.23;74.83
41234;BME280;26968;42.686;23.352;2022-12-31T08:52:22;96481.19;;;5.26;74.18
41234;BME280;26968;42.686;23.352;2022-12-31T08:54:48;96410.31;;;4.87;74.20
41234;BME280;26968;42.686;23.352;2022-12-31T08:57:23;96542.91;;;5.75;73.98
41234;BME280;26968;42.686;23.352;2022-12-31T09:00:04;96540.09;;;5.70;74.73
41234;BME280;26968;42.686;23.352;2022-12-31T09:02:55;96535.59;;;5.77;74.47
41234;BME280;26968;42.686;23.352;2022-12-31T09:05:42;96537.00;;;5.79;74.06
41234;BME280;26968;42.686;23.352;2022-12-31T09:08:16;96538.59;;;5.87;74.18
41234;BME280;26968;42.686;23.352;2022-12-31T09:10:58;96536.53;;;5.96;73.95
41234;BME280;26968;42.686;23.352;2022-12-31T09:18:23;96526.91;;;6.14;73.18
41234;BME280;26968;42.686;23.352;2022-12-31T09:20:49;96543.63;;;6.27;72.81
41234;BME280;26968;42.686;23.352;2022-12-31T09:23:15;96454.91;;;5.64;73.08
41234;BME280;26968;42.686;23.352;2022-12-31T09:25:59;96535.19;;;6.18;73.13
41234;BME280;26968;42.686;23.352;2022-12-31T09:28:38;96531.53;;;6.19;72.77
41234;BME280;26968;42.686;23.352;2022-12-31T09:31:14;96526.50;;;6.17;72.80
41234;BME280;26968;42.686;23.352;2022-12-31T09:33:55;96523.41;;;6.20;72.93
41234;BME280;26968;42.686;23.352;2022-12-31T09:36:37;96484.81;;;6.08;72.69
41234;BME280;26968;42.686;23.352;2022-12-31T09:39:10;96500.81;;;6.38;72.33
41234;BME280;26968;42.686;23.352;2022-12-31T09:50:00;96488.53;;;6.50;72.21
41234;BME280;26968;42.686;23.352;2022-12-31T09:53:03;96484.59;;;6.59;71.54
41234;BME280;26968;42.686;23.352;2022-12-31T09:55:35;96398.72;;;6.08;72.03
41234;BME280;26968;42.686;23.352;2022-12-31T10:00:42;96482.59;;;6.79;70.97
41234;BME280;26968;42.686;23.352;2022-12-31T10:09:04;96468.03;;;6.95;71.19
41234;BME280;26968;42.686;23.352;2022-12-31T10:24:43;96394.03;;;8.91;66.87
41234;BME280;26968;42.686;23.352;2022-12-31T10:33:14;96434.53;;;11.71;57.82
41234;BME280;26968;42.686;23.352;2022-12-31T10:35:53;96435.31;;;11.93;55.68
41234;BME280;26968;42.686;23.352;2022-12-31T10:38:32;96435.97;;;12.37;54.83
41234;BME280;26968;42.686;23.352;2022-12-31T10:47:23;96429.19;;;13.40;51.98
41234;BME280;26968;42.686;23.352;2022-12-31T10:50:09;96426.88;;;13.64;51.40
41234;BME280;26968;42.686;23.352;2022-12-31T10:55:55;96424.06;;;14.16;49.47
41234;BME280;26968;42.686;23.352;2022-12-31T11:01:30;96417.63;;;13.92;49.24
41234;BME280;26968;42.686;23.352;2022-12-31T11:09:50;96428.56;;;14.01;49.32
41234;BME280;26968;42.686;23.352;2022-12-31T11:15:17;96409.75;;;13.40;49.96
41234;BME280;26968;42.686;23.352;2022-12-31T11:37:07;96392.25;;;13.07;51.22
41234;BME280;26968;42.686;23.352;2022-12-31T11:42:46;96385.50;;;12.89;51.82
41234;BME280;26968;42.686;23.352;2022-12-31T11:47:58;96383.56;;;12.74;52.18
41234;BME280;26968;42.686;23.352;2022-12-31T11:56:18;96372.47;;;12.93;52.24
41234;BME280;26968;42.686;23.352;2022-12-31T11:58:50;96278.72;;;12.28;52.17
41234;BME280;26968;42.686;23.352;2022-12-31T12:03:50;96377.56;;;12.94;52.19
41234;BME280;26968;42.686;23.352;2022-12-31T12:06:19;96371.97;;;12.96;52.27
41234;BME280;26968;42.686;23.352;2022-12-31T12:08:47;96316.84;;;12.44;52.60
41234;BME280;26968;42.686;23.352;2022-12-31T12:11:20;96334.75;;;12.54;52.48
41234;BME280;26968;42.686;23.352;2022-12-31T12:13:47;96304.88;;;12.42;52.33
41234;BME280;26968;42.686;23.352;2022-12-31T12:16:13;96315.06;;;12.55;52.27
41234;BME280;26968;42.686;23.352;2022-12-31T12:18:47;96382.38;;;13.02;52.37
41234;BME280;26968;42.686;23.352;2022-12-31T12:21:24;96381.66;;;13.12;52.37
41234;BME280;26968;42.686;23.352;2022-12-31T12:26:36;96380.53;;;13.03;52.00
41234;BME280;26968;42.686;23.352;2022-12-31T12:29:15;96390.22;;;13.19;51.57
41234;BME280;26968;42.686;23.352;2022-12-31T12:31:41;96258.34;;;12.49;51.59
41234;BME280;26968;42.686;23.352;2022-12-31T12:34:37;96392.09;;;13.29;51.81
41234;BME280;26968;42.686;23.352;2022-12-31T12:37:06;96311.19;;;12.83;51.61
41234;BME280;26968;42.686;23.352;2022-12-31T12:39:33;96389.50;;;13.39;51.47
41234;BME280;26968;42.686;23.352;2022-12-31T12:42:00;96301.63;;;12.87;51.00
41234;BME280;26968;42.686;23.352;2022-12-31T12:44:27;96276.63;;;12.88;51.12
41234;BME280;26968;42.686;23.352;2022-12-31T12:46:54;96268.88;;;12.86;50.91
41234;BME280;26968;42.686;23.352;2022-12-31T12:57:23;96375.41;;;13.59;50.57
41234;BME280;26968;42.686;23.352;2022-12-31T12:59:56;96389.56;;;13.74;50.63
41234;BME280;26968;42.686;23.352;2022-12-31T13:10:06;96391.44;;;13.64;50.72
41234;BME280;26968;42.686;23.352;2022-12-31T13:13:19;96401.59;;;13.77;50.48
41234;BME280;26968;42.686;23.352;2022-12-31T13:15:43;96299.09;;;13.12;50.67
41234;BME280;26968;42.686;23.352;2022-12-31T13:27:04;96411.78;;;14.10;50.22
41234;BME280;26968;42.686;23.352;2022-12-31T13:29:33;96418.44;;;14.08;49.64
41234;BME280;26968;42.686;23.352;2022-12-31T13:32:02;96357.31;;;13.76;49.63
41234;BME280;26968;42.686;23.352;2022-12-31T13:34:40;96394.13;;;13.79;50.39
41234;BME280;26968;42.686;23.352;2022-12-31T13:37:23;96334.34;;;13.39;50.29
41234;BME280;26968;42.686;23.352;2022-12-31T13:39:56;96410.41;;;13.87;50.23
41234;BME280;26968;42.686;23.352;2022-12-31T13:42:27;96368.72;;;13.51;50.24
41234;BME280;26968;42.686;23.352;2022-12-31T13:45:02;96409.84;;;13.75;50.71
41234;BME280;26968;42.686;23.352;2022-12-31T13:47:31;96409.84;;;13.70;50.65
41234;BME280;26968;42.686;23.352;2022-12-31T13:52:41;96408.78;;;13.71;50.94
41234;BME280;26968;42.686;23.352;2022-12-31T13:55:29;96419.97;;;13.73;51.17
41234;BME280;26968;42.686;23.352;2022-12-31T13:58:03;96414.13;;;13.71;50.89
41234;BME280;26968;42.686;23.352;2022-12-31T14:01:05;96364.66;;;13.23;51.52
41234;BME280;26968;42.686;23.352;2022-12-31T14:03:37;96420.16;;;13.46;51.62
41234;BME280;26968;42.686;23.352;2022-12-31T14:08:42;96355.94;;;12.86;52.33
41234;BME280;26968;42.686;23.352;2022-12-31T14:14:29;96376.03;;;12.61;53.38
41234;BME280;26968;42.686;23.352;2022-12-31T14:17:32;96427.25;;;12.79;53.41
41234;BME280;26968;42.686;23.352;2022-12-31T14:25:52;96381.00;;;12.11;54.51
41234;BME280;26968;42.686;23.352;2022-12-31T14:28:34;96384.84;;;11.98;55.13
41234;BME280;26968;42.686;23.352;2022-12-31T14:31:13;96382.13;;;11.88;55.33
41234;BME280;26968;42.686;23.352;2022-12-31T14:39:27;96409.69;;;11.60;56.90
41234;BME280;26968;42.686;23.352;2022-12-31T14:42:15;96413.44;;;11.37;57.70
41234;BME280;26968;42.686;23.352;2022-12-31T14:50:24;96392.31;;;10.82;58.61
41234;BME280;26968;42.686;23.352;2022-12-31T14:53:05;96412.50;;;10.83;59.37
41234;BME280;26968;42.686;23.352;2022-12-31T14:55:33;96378.88;;;10.50;60.02
41234;BME280;26968;42.686;23.352;2022-12-31T14:58:01;96413.75;;;10.59;59.64
41234;BME280;26968;42.686;23.352;2022-12-31T15:00:34;96412.84;;;10.53;60.30
41234;BME280;26968;42.686;23.352;2022-12-31T15:03:06;96401.94;;;10.33;60.53
41234;BME280;26968;42.686;23.352;2022-12-31T15:05:36;96418.09;;;10.31;60.66
41234;BME280;26968;42.686;23.352;2022-12-31T15:08:10;96432.53;;;10.24;61.07
41234;BME280;26968;42.686;23.352;2022-12-31T15:10:47;96374.47;;;9.77;61.20
41234;BME280;26968;42.686;23.352;2022-12-31T15:22:05;96403.50;;;9.55;61.95
41234;BME280;26968;42.686;23.352;2022-12-31T15:24:42;96439.59;;;9.73;62.73
41234;BME280;26968;42.686;23.352;2022-12-31T15:27:20;96442.28;;;9.61;63.38
41234;BME280;26968;42.686;23.352;2022-12-31T15:29:50;96422.38;;;9.31;64.13
41234;BME280;26968;42.686;23.352;2022-12-31T15:32:25;96382.53;;;8.97;64.43
41234;BME280;26968;42.686;23.352;2022-12-31T15:35:04;96451.34;;;9.37;64.45
41234;BME280;26968;42.686;23.352;2022-12-31T15:38:28;96448.13;;;9.35;64.63
41234;BME280;26968;42.686;23.352;2022-12-31T15:40:54;96413.44;;;9.08;64.28
41234;BME280;26968;42.686;23.352;2022-12-31T15:43:30;96455.41;;;9.28;64.24
41234;BME280;26968;42.686;23.352;2022-12-31T15:45:58;96438.63;;;9.11;64.75
41234;BME280;26968;42.686;23.352;2022-12-31T15:48:48;96455.41;;;9.16;64.84
41234;BME280;26968;42.686;23.352;2022-12-31T15:51:43;96463.72;;;8.97;65.35
41234;BME280;26968;42.686;23.352;2022-12-31T15:57:01;96417.41;;;8.36;67.15
41234;BME280;26968;42.686;23.352;2022-12-31T15:59:26;96473.19;;;8.69;66.89
41234;BME280;26968;42.686;23.352;2022-12-31T16:01:54;96473.28;;;8.74;66.97
41234;BME280;26968;42.686;23.352;2022-12-31T16:04:28;96471.78;;;8.67;67.08
41234;BME280;26968;42.686;23.352;2022-12-31T16:06:58;96476.94;;;8.50;67.42
41234;BME280;26968;42.686;23.352;2022-12-31T16:09:27;96431.03;;;8.21;67.34
41234;BME280;26968;42.686;23.352;2022-12-31T16:11:55;96392.19;;;7.98;67.15
41234;BME280;26968;42.686;23.352;2022-12-31T16:14:35;96296.75;;;7.30;67.62
41234;BME280;26968;42.686;23.352;2022-12-31T16:17:02;96492.94;;;8.43;67.84
41234;BME280;26968;42.686;23.352;2022-12-31T16:19:44;96493.03;;;8.37;67.80
41234;BME280;26968;42.686;23.352;2022-12-31T16:22:15;96460.06;;;8.09;67.52
41234;BME280;26968;42.686;23.352;2022-12-31T16:24:41;96410.25;;;7.71;68.00
41234;BME280;26968;42.686;23.352;2022-12-31T16:27:13;96467.22;;;7.79;68.96
41234;BME280;26968;42.686;23.352;2022-12-31T16:29:44;96498.56;;;8.05;68.96
41234;BME280;26968;42.686;23.352;2022-12-31T16:32:20;96511.31;;;8.08;68.72
41234;BME280;26968;42.686;23.352;2022-12-31T16:34:46;96437.81;;;7.46;69.03
41234;BME280;26968;42.686;23.352;2022-12-31T16:37:17;96457.94;;;7.58;68.56
41234;BME280;26968;42.686;23.352;2022-12-31T16:42:19;96485.34;;;7.46;69.35
41234;BME280;26968;42.686;23.352;2022-12-31T16:44:47;96487.44;;;7.55;69.33
41234;BME280;26968;42.686;23.352;2022-12-31T16:47:24;96474.41;;;7.42;69.22
41234;BME280;26968;42.686;23.352;2022-12-31T16:50:01;96485.91;;;7.48;69.79
41234;BME280;26968;42.686;23.352;2022-12-31T16:54:54;96494.88;;;7.28;70.18
41234;BME280;26968;42.686;23.352;2022-12-31T16:57:23;96543.03;;;7.60;69.67
41234;BME280;26968;42.686;23.352;2022-12-31T16:59:55;96451.91;;;7.03;69.47
41234;BME280;26968;42.686;23.352;2022-12-31T17:02:33;96535.41;;;7.52;69.75
41234;BME280;26968;42.686;23.352;2022-12-31T17:05:00;96532.25;;;7.44;70.02
41234;BME280;26968;42.686;23.352;2022-12-31T17:12:34;96520.22;;;7.29;69.67